sensor_id;sensor_type;location;lat;lon;timestamp;P1;durP1;ratioP1;P2;durP2;ratioP2
58966;SDS011;44744;51.894;5.080;2022-07-06T00:00:34;4.20;;;2.20;;
58966;SDS011;44744;51.894;5.080;2022-07-06T00:01:43;4.00;;;2.20;;
58966;SDS011;44744;51.894;5.080;2022-07-06T00:03:07;4.20;;;1.70;;
58966;SDS011;44744;51.894;5.080;2022-07-06T00:04:08;5.40;;;2.10;;
58966;SDS011;44744;51.894;5.080;2022-07-06T00:05:08;3.20;;;2.00;;
58966;SDS011;44744;51.894;5.080;2022-07-06T00:06:11;4.80;;;2.00;;
58966;SDS011;44744;51.894;5.080;2022-07-06T00:07:12;3.60;;;2.20;;
58966;SDS011;44744;51.894;5.080;2022-07-06T00:08:13;3.80;;;2.40;;
58966;SDS011;44744;51.894;5.080;2022-07-06T00:09:13;3.90;;;1.90;;
58966;SDS011;44744;51.894;5.080;2022-07-06T00:10:14;3.60;;;2.30;;
58966;SDS011;44744;51.894;5.080;2022-07-06T00:11:17;6.80;;;2.20;;
58966;SDS011;44744;51.894;5.080;2022-07-06T00:12:18;5.80;;;2.50;;
58966;SDS011;44744;51.894;5.080;2022-07-06T00:13:30;3.50;;;2.20;;
58966;SDS011;44744;51.894;5.080;2022-07-06T00:14:46;5.70;;;2.20;;
58966;SDS011;44744;51.894;5.080;2022-07-06T00:15:46;3.70;;;1.80;;
58966;SDS011;44744;51.894;5.080;2022-07-06T00:16:46;4.40;;;2.80;;
58966;SDS011;44744;51.894;5.080;2022-07-06T00:19:00;4.50;;;2.30;;
58966;SDS011;44744;51.894;5.080;2022-07-06T00:20:01;4.40;;;1.90;;
58966;SDS011;44744;51.894;5.080;2022-07-06T00:21:04;7.10;;;2.20;;
58966;SDS011;44744;51.894;5.080;2022-07-06T00:22:05;4.90;;;2.00;;
58966;SDS011;44744;51.894;5.080;2022-07-06T00:23:05;4.90;;;2.00;;
58966;SDS011;44744;51.894;5.080;2022-07-06T00:24:15;5.20;;;2.20;;
58966;SDS011;44744;51.894;5.080;2022-07-06T00:25:16;3.30;;;2.00;;
58966;SDS011;44744;51.894;5.080;2022-07-06T00:26:16;3.50;;;2.10;;
58966;SDS011;44744;51.894;5.080;2022-07-06T00:27:19;3.90;;;2.00;;
58966;SDS011;44744;51.894;5.080;2022-07-06T00:28:22;5.30;;;2.10;;
58966;SDS011;44744;51.894;5.080;2022-07-06T00:29:28;5.00;;;2.10;;
58966;SDS011;44744;51.894;5.080;2022-07-06T00:30:28;3.40;;;2.10;;
58966;SDS011;44744;51.894;5.080;2022-07-06T00:31:38;5.20;;;2.10;;
58966;SDS011;44744;51.894;5.080;2022-07-06T00:33:01;4.00;;;2.20;;
58966;SDS011;44744;51.894;5.080;2022-07-06T00:34:01;3.80;;;2.30;;
58966;SDS011;44744;51.894;5.080;2022-07-06T00:35:02;4.30;;;2.20;;
58966;SDS011;44744;51.894;5.080;2022-07-06T00:36:06;6.60;;;2.20;;
58966;SDS011;44744;51.894;5.080;2022-07-06T00:37:06;5.20;;;2.70;;
58966;SDS011;44744;51.894;5.080;2022-07-06T00:38:07;4.80;;;2.30;;
58966;SDS011;44744;51.894;5.080;2022-07-06T00:39:07;4.20;;;2.60;;
58966;SDS011;44744;51.894;5.080;2022-07-06T00:40:08;4.80;;;2.50;;
58966;SDS011;44744;51.894;5.080;2022-07-06T00:41:08;4.10;;;2.00;;
58966;SDS011;44744;51.894;5.080;2022-07-06T00:42:42;7.10;;;2.30;;
58966;SDS011;44744;51.894;5.080;2022-07-06T00:44:06;3.80;;;1.90;;
58966;SDS011;44744;51.894;5.080;2022-07-06T00:45:11;3.50;;;2.20;;
58966;SDS011;44744;51.894;5.080;2022-07-06T00:46:13;3.10;;;2.30;;
58966;SDS011;44744;51.894;5.080;2022-07-06T00:47:14;4.70;;;1.80;;
58966;SDS011;44744;51.894;5.080;2022-07-06T00:48:26;2.80;;;1.90;;
58966;SDS011;44744;51.894;5.080;2022-07-06T00:49:29;3.90;;;2.10;;
58966;SDS011;44744;51.894;5.080;2022-07-06T00:50:53;4.20;;;1.90;;
58966;SDS011;44744;51.894;5.080;2022-07-06T00:51:55;4.10;;;2.20;;
58966;SDS011;44744;51.894;5.080;2022-07-06T00:53:05;3.70;;;2.00;;
58966;SDS011;44744;51.894;5.080;2022-07-06T00:54:06;2.80;;;1.90;;
58966;SDS011;44744;51.894;5.080;2022-07-06T00:55:11;5.40;;;2.10;;
58966;SDS011;44744;51.894;5.080;2022-07-06T00:57:23;3.50;;;2.10;;
58966;SDS011;44744;51.894;5.080;2022-07-06T00:58:29;5.50;;;2.20;;
58966;SDS011;44744;51.894;5.080;2022-07-06T01:00:56;4.60;;;2.50;;
58966;SDS011;44744;51.894;5.080;2022-07-06T01:01:57;3.50;;;2.20;;
58966;SDS011;44744;51.894;5.080;2022-07-06T01:03:09;5.20;;;2.00;;
58966;SDS011;44744;51.894;5.080;2022-07-06T01:04:12;4.90;;;2.10;;
58966;SDS011;44744;51.894;5.080;2022-07-06T01:05:24;4.90;;;2.00;;
58966;SDS011;44744;51.894;5.080;2022-07-06T01:06:25;3.40;;;2.10;;
58966;SDS011;44744;51.894;5.080;2022-07-06T01:07:26;3.10;;;2.00;;
58966;SDS011;44744;51.894;5.080;2022-07-06T01:08:50;5.70;;;2.10;;
58966;SDS011;44744;51.894;5.080;2022-07-06T01:09:50;3.90;;;2.20;;
58966;SDS011;44744;51.894;5.080;2022-07-06T01:10:51;3.80;;;2.30;;
58966;SDS011;44744;51.894;5.080;2022-07-06T01:11:52;2.50;;;1.70;;
58966;SDS011;44744;51.894;5.080;2022-07-06T01:12:53;5.40;;;2.30;;
58966;SDS011;44744;51.894;5.080;2022-07-06T01:13:59;4.70;;;2.10;;
58966;SDS011;44744;51.894;5.080;2022-07-06T01:15:00;3.20;;;1.70;;
58966;SDS011;44744;51.894;5.080;2022-07-06T01:16:03;3.40;;;2.20;;
58966;SDS011;44744;51.894;5.080;2022-07-06T01:17:04;3.40;;;2.00;;
58966;SDS011;44744;51.894;5.080;2022-07-06T01:18:05;3.50;;;2.00;;
58966;SDS011;44744;51.894;5.080;2022-07-06T01:19:15;3.70;;;1.90;;
58966;SDS011;44744;51.894;5.080;2022-07-06T01:20:25;6.20;;;2.40;;
58966;SDS011;44744;51.894;5.080;2022-07-06T01:21:29;4.20;;;2.00;;
58966;SDS011;44744;51.894;5.080;2022-07-06T01:22:29;3.20;;;2.00;;
58966;SDS011;44744;51.894;5.080;2022-07-06T01:23:30;3.50;;;1.70;;
58966;SDS011;44744;51.894;5.080;2022-07-06T01:24:31;3.20;;;2.40;;
58966;SDS011;44744;51.894;5.080;2022-07-06T01:26:44;4.70;;;2.20;;
58966;SDS011;44744;51.894;5.080;2022-07-06T01:27:54;6.10;;;2.10;;
58966;SDS011;44744;51.894;5.080;2022-07-06T01:28:54;3.60;;;2.20;;
58966;SDS011;44744;51.894;5.080;2022-07-06T01:29:55;4.80;;;2.60;;
58966;SDS011;44744;51.894;5.080;2022-07-06T01:32:17;3.80;;;2.00;;
58966;SDS011;44744;51.894;5.080;2022-07-06T01:33:18;4.60;;;1.90;;
58966;SDS011;44744;51.894;5.080;2022-07-06T01:34:18;3.00;;;2.10;;
58966;SDS011;44744;51.894;5.080;2022-07-06T01:35:22;5.10;;;2.20;;
58966;SDS011;44744;51.894;5.080;2022-07-06T01:36:26;4.90;;;2.60;;
58966;SDS011;44744;51.894;5.080;2022-07-06T01:37:32;2.70;;;1.80;;
58966;SDS011;44744;51.894;5.080;2022-07-06T01:38:42;5.10;;;2.10;;
58966;SDS011;44744;51.894;5.080;2022-07-06T01:39:45;4.50;;;1.90;;
58966;SDS011;44744;51.894;5.080;2022-07-06T01:40:51;4.40;;;1.70;;
58966;SDS011;44744;51.894;5.080;2022-07-06T01:41:51;4.10;;;2.00;;
58966;SDS011;44744;51.894;5.080;2022-07-06T01:43:03;8.00;;;2.50;;
58966;SDS011;44744;51.894;5.080;2022-07-06T01:44:06;4.80;;;2.00;;
58966;SDS011;44744;51.894;5.080;2022-07-06T01:45:10;3.50;;;1.80;;
58966;SDS011;44744;51.894;5.080;2022-07-06T01:46:13;6.50;;;1.80;;
58966;SDS011;44744;51.894;5.080;2022-07-06T01:47:23;4.30;;;1.80;;
58966;SDS011;44744;51.894;5.080;2022-07-06T01:48:24;4.80;;;2.30;;
58966;SDS011;44744;51.894;5.080;2022-07-06T01:49:45;3.50;;;1.90;;
58966;SDS011;44744;51.894;5.080;2022-07-06T01:50:45;3.70;;;2.10;;
58966;SDS011;44744;51.894;5.080;2022-07-06T01:51:48;3.90;;;2.00;;
58966;SDS011;44744;51.894;5.080;2022-07-06T01:52:51;3.90;;;2.10;;
58966;SDS011;44744;51.894;5.080;2022-07-06T01:53:52;2.90;;;1.90;;
58966;SDS011;44744;51.894;5.080;2022-07-06T01:54:53;4.70;;;1.80;;
58966;SDS011;44744;51.894;5.080;2022-07-06T01:55:57;2.70;;;1.70;;
58966;SDS011;44744;51.894;5.080;2022-07-06T01:56:58;4.70;;;1.90;;
58966;SDS011;44744;51.894;5.080;2022-07-06T01:57:58;5.20;;;2.10;;
58966;SDS011;44744;51.894;5.080;2022-07-06T01:59:29;2.70;;;2.00;;
58966;SDS011;44744;51.894;5.080;2022-07-06T02:00:33;4.80;;;2.00;;
58966;SDS011;44744;51.894;5.080;2022-07-06T02:01:34;2.70;;;1.90;;
58966;SDS011;44744;51.894;5.080;2022-07-06T02:02:34;4.10;;;2.00;;
58966;SDS011;44744;51.894;5.080;2022-07-06T02:03:34;3.40;;;1.90;;
58966;SDS011;44744;51.894;5.080;2022-07-06T02:04:35;3.80;;;2.20;;
58966;SDS011;44744;51.894;5.080;2022-07-06T02:05:39;4.10;;;2.10;;
58966;SDS011;44744;51.894;5.080;2022-07-06T02:06:45;5.90;;;2.30;;
58966;SDS011;44744;51.894;5.080;2022-07-06T02:07:53;3.60;;;2.00;;
58966;SDS011;44744;51.894;5.080;2022-07-06T02:08:53;3.80;;;2.00;;
58966;SDS011;44744;51.894;5.080;2022-07-06T02:09:54;4.70;;;2.20;;
58966;SDS011;44744;51.894;5.080;2022-07-06T02:10:57;4.20;;;2.20;;
58966;SDS011;44744;51.894;5.080;2022-07-06T02:12:18;9.20;;;2.10;;
58966;SDS011;44744;51.894;5.080;2022-07-06T02:13:18;3.70;;;2.10;;
58966;SDS011;44744;51.894;5.080;2022-07-06T02:14:21;3.50;;;1.90;;
58966;SDS011;44744;51.894;5.080;2022-07-06T02:15:23;3.60;;;1.80;;
58966;SDS011;44744;51.894;5.080;2022-07-06T02:16:24;4.80;;;2.20;;
58966;SDS011;44744;51.894;5.080;2022-07-06T02:17:24;2.70;;;2.00;;
58966;SDS011;44744;51.894;5.080;2022-07-06T02:18:53;3.10;;;2.10;;
58966;SDS011;44744;51.894;5.080;2022-07-06T02:19:51;4.20;;;2.00;;
58966;SDS011;44744;51.894;5.080;2022-07-06T02:20:51;4.10;;;2.10;;
58966;SDS011;44744;51.894;5.080;2022-07-06T02:21:57;3.90;;;2.00;;
58966;SDS011;44744;51.894;5.080;2022-07-06T02:23:01;3.80;;;2.30;;
58966;SDS011;44744;51.894;5.080;2022-07-06T02:24:22;2.20;;;1.70;;
58966;SDS011;44744;51.894;5.080;2022-07-06T02:25:25;3.80;;;2.10;;
58966;SDS011;44744;51.894;5.080;2022-07-06T02:26:28;3.90;;;2.00;;
58966;SDS011;44744;51.894;5.080;2022-07-06T02:27:31;3.40;;;1.80;;
58966;SDS011;44744;51.894;5.080;2022-07-06T02:28:31;4.60;;;2.20;;
58966;SDS011;44744;51.894;5.080;2022-07-06T02:31:14;3.60;;;1.80;;
58966;SDS011;44744;51.894;5.080;2022-07-06T02:33:47;7.10;;;2.10;;
58966;SDS011;44744;51.894;5.080;2022-07-06T02:34:50;3.60;;;2.20;;
58966;SDS011;44744;51.894;5.080;2022-07-06T02:35:53;4.90;;;1.90;;
58966;SDS011;44744;51.894;5.080;2022-07-06T02:36:53;3.60;;;1.80;;
58966;SDS011;44744;51.894;5.080;2022-07-06T02:37:54;6.10;;;2.40;;
58966;SDS011;44744;51.894;5.080;2022-07-06T02:38:57;6.10;;;2.40;;
58966;SDS011;44744;51.894;5.080;2022-07-06T02:39:57;2.90;;;1.80;;
58966;SDS011;44744;51.894;5.080;2022-07-06T02:41:01;4.00;;;1.90;;
58966;SDS011;44744;51.894;5.080;2022-07-06T02:42:02;4.60;;;2.20;;
58966;SDS011;44744;51.894;5.080;2022-07-06T02:43:12;5.90;;;2.20;;
58966;SDS011;44744;51.894;5.080;2022-07-06T02:44:22;4.30;;;2.30;;
58966;SDS011;44744;51.894;5.080;2022-07-06T02:45:23;3.80;;;2.00;;
58966;SDS011;44744;51.894;5.080;2022-07-06T02:46:23;4.60;;;1.80;;
58966;SDS011;44744;51.894;5.080;2022-07-06T02:47:23;3.00;;;2.40;;
58966;SDS011;44744;51.894;5.080;2022-07-06T02:48:24;4.70;;;2.40;;
58966;SDS011;44744;51.894;5.080;2022-07-06T02:49:24;3.50;;;1.80;;
58966;SDS011;44744;51.894;5.080;2022-07-06T02:51:35;4.50;;;2.40;;
58966;SDS011;44744;51.894;5.080;2022-07-06T02:52:35;5.90;;;2.20;;
58966;SDS011;44744;51.894;5.080;2022-07-06T02:53:39;5.40;;;2.00;;
58966;SDS011;44744;51.894;5.080;2022-07-06T02:54:40;4.00;;;2.50;;
58966;SDS011;44744;51.894;5.080;2022-07-06T02:55:40;4.30;;;2.10;;
58966;SDS011;44744;51.894;5.080;2022-07-06T02:56:43;4.20;;;2.10;;
58966;SDS011;44744;51.894;5.080;2022-07-06T02:58:57;2.80;;;1.90;;
58966;SDS011;44744;51.894;5.080;2022-07-06T03:00:03;5.20;;;2.60;;
58966;SDS011;44744;51.894;5.080;2022-07-06T03:01:13;3.60;;;1.90;;
58966;SDS011;44744;51.894;5.080;2022-07-06T03:02:23;5.20;;;2.90;;
58966;SDS011;44744;51.894;5.080;2022-07-06T03:03:32;3.30;;;2.00;;
58966;SDS011;44744;51.894;5.080;2022-07-06T03:06:23;4.60;;;1.90;;
58966;SDS011;44744;51.894;5.080;2022-07-06T03:07:26;3.40;;;1.80;;
58966;SDS011;44744;51.894;5.080;2022-07-06T03:08:27;4.30;;;1.90;;
58966;SDS011;44744;51.894;5.080;2022-07-06T03:09:27;5.20;;;2.30;;
58966;SDS011;44744;51.894;5.080;2022-07-06T03:10:28;4.00;;;1.80;;
58966;SDS011;44744;51.894;5.080;2022-07-06T03:11:28;3.20;;;1.80;;
58966;SDS011;44744;51.894;5.080;2022-07-06T03:12:29;5.80;;;1.80;;
58966;SDS011;44744;51.894;5.080;2022-07-06T03:13:29;4.20;;;2.30;;
58966;SDS011;44744;51.894;5.080;2022-07-06T03:14:30;3.80;;;1.80;;
58966;SDS011;44744;51.894;5.080;2022-07-06T03:17:14;2.80;;;1.80;;
58966;SDS011;44744;51.894;5.080;2022-07-06T03:18:23;5.70;;;2.40;;
58966;SDS011;44744;51.894;5.080;2022-07-06T03:19:47;3.60;;;1.90;;
58966;SDS011;44744;51.894;5.080;2022-07-06T03:20:49;5.00;;;2.20;;
58966;SDS011;44744;51.894;5.080;2022-07-06T03:23:30;5.20;;;1.90;;
58966;SDS011;44744;51.894;5.080;2022-07-06T03:27:25;3.70;;;2.30;;
58966;SDS011;44744;51.894;5.080;2022-07-06T03:28:25;7.40;;;2.40;;
58966;SDS011;44744;51.894;5.080;2022-07-06T03:29:26;3.50;;;1.80;;
58966;SDS011;44744;51.894;5.080;2022-07-06T03:30:29;4.70;;;2.20;;
58966;SDS011;44744;51.894;5.080;2022-07-06T03:31:50;6.20;;;2.00;;
58966;SDS011;44744;51.894;5.080;2022-07-06T03:33:02;2.90;;;1.80;;
58966;SDS011;44744;51.894;5.080;2022-07-06T03:34:03;3.40;;;2.10;;
58966;SDS011;44744;51.894;5.080;2022-07-06T03:35:03;3.00;;;1.80;;
58966;SDS011;44744;51.894;5.080;2022-07-06T03:36:04;3.90;;;1.90;;
58966;SDS011;44744;51.894;5.080;2022-07-06T03:37:15;6.50;;;2.20;;
58966;SDS011;44744;51.894;5.080;2022-07-06T03:38:19;2.80;;;1.80;;
58966;SDS011;44744;51.894;5.080;2022-07-06T03:39:19;4.30;;;1.90;;
58966;SDS011;44744;51.894;5.080;2022-07-06T03:40:19;4.80;;;2.00;;
58966;SDS011;44744;51.894;5.080;2022-07-06T03:41:29;3.10;;;2.10;;
58966;SDS011;44744;51.894;5.080;2022-07-06T03:42:30;4.80;;;1.90;;
58966;SDS011;44744;51.894;5.080;2022-07-06T03:43:33;4.40;;;2.10;;
58966;SDS011;44744;51.894;5.080;2022-07-06T03:44:34;4.60;;;2.00;;
58966;SDS011;44744;51.894;5.080;2022-07-06T03:46:44;6.40;;;2.10;;
58966;SDS011;44744;51.894;5.080;2022-07-06T03:47:47;4.60;;;1.90;;
58966;SDS011;44744;51.894;5.080;2022-07-06T03:48:51;3.60;;;1.80;;
58966;SDS011;44744;51.894;5.080;2022-07-06T03:49:54;4.10;;;1.70;;
58966;SDS011;44744;51.894;5.080;2022-07-06T03:50:55;5.60;;;2.00;;
58966;SDS011;44744;51.894;5.080;2022-07-06T03:51:55;4.10;;;1.70;;
58966;SDS011;44744;51.894;5.080;2022-07-06T03:54:33;5.00;;;1.90;;
58966;SDS011;44744;51.894;5.080;2022-07-06T03:55:34;3.90;;;1.90;;
58966;SDS011;44744;51.894;5.080;2022-07-06T03:56:34;4.40;;;2.10;;
58966;SDS011;44744;51.894;5.080;2022-07-06T03:57:37;4.20;;;1.70;;
58966;SDS011;44744;51.894;5.080;2022-07-06T03:58:38;4.50;;;2.00;;
58966;SDS011;44744;51.894;5.080;2022-07-06T03:59:44;3.20;;;1.60;;
58966;SDS011;44744;51.894;5.080;2022-07-06T04:00:45;3.70;;;2.00;;
58966;SDS011;44744;51.894;5.080;2022-07-06T04:01:45;2.60;;;1.90;;
58966;SDS011;44744;51.894;5.080;2022-07-06T04:02:46;4.30;;;1.80;;
58966;SDS011;44744;51.894;5.080;2022-07-06T04:03:46;4.00;;;1.70;;
58966;SDS011;44744;51.894;5.080;2022-07-06T04:04:47;6.90;;;2.50;;
58966;SDS011;44744;51.894;5.080;2022-07-06T04:05:50;3.80;;;1.60;;
58966;SDS011;44744;51.894;5.080;2022-07-06T04:06:50;3.90;;;1.80;;
58966;SDS011;44744;51.894;5.080;2022-07-06T04:08:02;5.80;;;2.40;;
58966;SDS011;44744;51.894;5.080;2022-07-06T04:10:43;5.30;;;2.10;;
58966;SDS011;44744;51.894;5.080;2022-07-06T04:11:55;4.10;;;2.10;;
58966;SDS011;44744;51.894;5.080;2022-07-06T04:12:56;4.30;;;1.90;;
58966;SDS011;44744;51.894;5.080;2022-07-06T04:13:59;5.40;;;2.10;;
58966;SDS011;44744;51.894;5.080;2022-07-06T04:15:00;4.30;;;2.10;;
58966;SDS011;44744;51.894;5.080;2022-07-06T04:16:03;3.70;;;2.10;;
58966;SDS011;44744;51.894;5.080;2022-07-06T04:17:04;4.70;;;1.80;;
58966;SDS011;44744;51.894;5.080;2022-07-06T04:18:04;2.80;;;1.70;;
58966;SDS011;44744;51.894;5.080;2022-07-06T04:19:05;3.10;;;1.70;;
58966;SDS011;44744;51.894;5.080;2022-07-06T04:20:06;3.30;;;2.20;;
58966;SDS011;44744;51.894;5.080;2022-07-06T04:21:07;3.90;;;1.80;;
58966;SDS011;44744;51.894;5.080;2022-07-06T04:22:08;2.80;;;1.80;;
58966;SDS011;44744;51.894;5.080;2022-07-06T04:23:08;4.50;;;1.90;;
58966;SDS011;44744;51.894;5.080;2022-07-06T04:24:11;3.30;;;1.70;;
58966;SDS011;44744;51.894;5.080;2022-07-06T04:25:11;4.40;;;1.80;;
58966;SDS011;44744;51.894;5.080;2022-07-06T04:26:35;5.80;;;1.70;;
58966;SDS011;44744;51.894;5.080;2022-07-06T04:27:44;4.10;;;1.80;;
58966;SDS011;44744;51.894;5.080;2022-07-06T04:28:45;2.60;;;1.70;;
58966;SDS011;44744;51.894;5.080;2022-07-06T04:29:50;6.30;;;2.10;;
58966;SDS011;44744;51.894;5.080;2022-07-06T04:30:53;8.60;;;2.00;;
58966;SDS011;44744;51.894;5.080;2022-07-06T04:31:56;5.00;;;1.80;;
58966;SDS011;44744;51.894;5.080;2022-07-06T04:32:59;3.20;;;1.70;;
58966;SDS011;44744;51.894;5.080;2022-07-06T04:34:05;4.50;;;2.00;;
58966;SDS011;44744;51.894;5.080;2022-07-06T04:35:05;4.80;;;2.10;;
58966;SDS011;44744;51.894;5.080;2022-07-06T04:36:06;4.40;;;1.90;;
58966;SDS011;44744;51.894;5.080;2022-07-06T04:37:06;4.00;;;1.90;;
58966;SDS011;44744;51.894;5.080;2022-07-06T04:38:07;4.80;;;1.90;;
58966;SDS011;44744;51.894;5.080;2022-07-06T04:39:07;3.10;;;1.80;;
58966;SDS011;44744;51.894;5.080;2022-07-06T04:40:08;3.90;;;2.00;;
58966;SDS011;44744;51.894;5.080;2022-07-06T04:41:12;3.00;;;1.70;;
58966;SDS011;44744;51.894;5.080;2022-07-06T04:42:32;12.40;;;2.10;;
58966;SDS011;44744;51.894;5.080;2022-07-06T04:43:33;4.90;;;1.70;;
58966;SDS011;44744;51.894;5.080;2022-07-06T04:44:33;4.40;;;2.10;;
58966;SDS011;44744;51.894;5.080;2022-07-06T04:45:36;5.00;;;2.60;;
58966;SDS011;44744;51.894;5.080;2022-07-06T04:46:40;6.40;;;2.60;;
58966;SDS011;44744;51.894;5.080;2022-07-06T04:47:40;5.30;;;2.30;;
58966;SDS011;44744;51.894;5.080;2022-07-06T04:48:41;6.40;;;2.10;;
58966;SDS011;44744;51.894;5.080;2022-07-06T04:49:41;6.00;;;2.00;;
58966;SDS011;44744;51.894;5.080;2022-07-06T04:50:42;4.10;;;2.10;;
58966;SDS011;44744;51.894;5.080;2022-07-06T04:51:42;5.20;;;2.00;;
58966;SDS011;44744;51.894;5.080;2022-07-06T04:52:42;7.80;;;1.80;;
58966;SDS011;44744;51.894;5.080;2022-07-06T04:53:55;5.70;;;2.00;;
58966;SDS011;44744;51.894;5.080;2022-07-06T04:55:16;4.10;;;1.70;;
58966;SDS011;44744;51.894;5.080;2022-07-06T04:56:21;5.30;;;2.10;;
58966;SDS011;44744;51.894;5.080;2022-07-06T04:57:25;5.50;;;2.20;;
58966;SDS011;44744;51.894;5.080;2022-07-06T04:58:28;3.60;;;1.50;;
58966;SDS011;44744;51.894;5.080;2022-07-06T04:59:28;4.20;;;2.20;;
58966;SDS011;44744;51.894;5.080;2022-07-06T05:00:32;7.50;;;2.60;;
58966;SDS011;44744;51.894;5.080;2022-07-06T05:01:35;4.50;;;2.00;;
58966;SDS011;44744;51.894;5.080;2022-07-06T05:02:44;4.00;;;1.70;;
58966;SDS011;44744;51.894;5.080;2022-07-06T05:04:58;5.50;;;2.00;;
58966;SDS011;44744;51.894;5.080;2022-07-06T05:06:10;5.20;;;1.70;;
58966;SDS011;44744;51.894;5.080;2022-07-06T05:07:10;4.00;;;1.80;;
58966;SDS011;44744;51.894;5.080;2022-07-06T05:08:13;6.40;;;2.30;;
58966;SDS011;44744;51.894;5.080;2022-07-06T05:09:16;6.80;;;2.00;;
58966;SDS011;44744;51.894;5.080;2022-07-06T05:10:17;9.60;;;2.10;;
58966;SDS011;44744;51.894;5.080;2022-07-06T05:11:19;3.30;;;1.90;;
58966;SDS011;44744;51.894;5.080;2022-07-06T05:12:25;4.50;;;1.80;;
58966;SDS011;44744;51.894;5.080;2022-07-06T05:18:44;4.00;;;1.90;;
58966;SDS011;44744;51.894;5.080;2022-07-06T05:20:07;5.70;;;1.90;;
58966;SDS011;44744;51.894;5.080;2022-07-06T05:21:31;8.70;;;2.30;;
58966;SDS011;44744;51.894;5.080;2022-07-06T05:22:55;3.50;;;1.90;;
58966;SDS011;44744;51.894;5.080;2022-07-06T05:23:55;5.20;;;2.00;;
58966;SDS011;44744;51.894;5.080;2022-07-06T05:24:56;3.30;;;2.00;;
58966;SDS011;44744;51.894;5.080;2022-07-06T05:25:56;6.30;;;2.10;;
58966;SDS011;44744;51.894;5.080;2022-07-06T05:27:06;4.40;;;1.90;;
58966;SDS011;44744;51.894;5.080;2022-07-06T05:28:08;5.50;;;1.70;;
58966;SDS011;44744;51.894;5.080;2022-07-06T05:29:12;7.60;;;2.10;;
58966;SDS011;44744;51.894;5.080;2022-07-06T05:35:14;6.90;;;1.90;;
58966;SDS011;44744;51.894;5.080;2022-07-06T05:37:00;4.90;;;1.80;;
58966;SDS011;44744;51.894;5.080;2022-07-06T05:40:41;6.50;;;2.00;;
58966;SDS011;44744;51.894;5.080;2022-07-06T05:41:42;4.00;;;1.90;;
58966;SDS011;44744;51.894;5.080;2022-07-06T05:42:42;4.70;;;2.00;;
58966;SDS011;44744;51.894;5.080;2022-07-06T05:43:43;4.40;;;2.00;;
58966;SDS011;44744;51.894;5.080;2022-07-06T05:44:43;5.10;;;1.90;;
58966;SDS011;44744;51.894;5.080;2022-07-06T05:45:47;5.00;;;1.90;;
58966;SDS011;44744;51.894;5.080;2022-07-06T05:46:49;4.90;;;2.10;;
58966;SDS011;44744;51.894;5.080;2022-07-06T05:47:55;7.10;;;1.90;;
58966;SDS011;44744;51.894;5.080;2022-07-06T05:49:16;4.70;;;2.00;;
58966;SDS011;44744;51.894;5.080;2022-07-06T05:51:45;3.50;;;2.00;;
58966;SDS011;44744;51.894;5.080;2022-07-06T05:53:02;5.00;;;1.90;;
58966;SDS011;44744;51.894;5.080;2022-07-06T05:54:04;3.60;;;2.00;;
58966;SDS011;44744;51.894;5.080;2022-07-06T05:55:05;4.30;;;1.80;;
58966;SDS011;44744;51.894;5.080;2022-07-06T06:00:44;2.80;;;1.80;;
58966;SDS011;44744;51.894;5.080;2022-07-06T06:03:28;3.80;;;1.80;;
58966;SDS011;44744;51.894;5.080;2022-07-06T06:06:03;4.30;;;1.90;;
58966;SDS011;44744;51.894;5.080;2022-07-06T06:07:04;3.80;;;1.80;;
58966;SDS011;44744;51.894;5.080;2022-07-06T06:08:12;3.10;;;1.70;;
58966;SDS011;44744;51.894;5.080;2022-07-06T06:09:16;2.80;;;1.80;;
58966;SDS011;44744;51.894;5.080;2022-07-06T06:10:39;2.80;;;1.60;;
58966;SDS011;44744;51.894;5.080;2022-07-06T06:11:41;4.40;;;1.70;;
58966;SDS011;44744;51.894;5.080;2022-07-06T06:12:55;4.80;;;1.60;;
58966;SDS011;44744;51.894;5.080;2022-07-06T06:15:47;2.80;;;1.50;;
58966;SDS011;44744;51.894;5.080;2022-07-06T06:18:20;4.10;;;1.60;;
58966;SDS011;44744;51.894;5.080;2022-07-06T06:19:21;2.80;;;1.70;;
58966;SDS011;44744;51.894;5.080;2022-07-06T06:20:24;4.20;;;1.50;;
58966;SDS011;44744;51.894;5.080;2022-07-06T06:22:57;4.30;;;1.80;;
58966;SDS011;44744;51.894;5.080;2022-07-06T06:24:37;3.70;;;1.60;;
58966;SDS011;44744;51.894;5.080;2022-07-06T06:28:58;5.30;;;1.50;;
58966;SDS011;44744;51.894;5.080;2022-07-06T06:36:48;3.00;;;1.30;;
58966;SDS011;44744;51.894;5.080;2022-07-06T06:38:23;2.00;;;1.30;;
58966;SDS011;44744;51.894;5.080;2022-07-06T06:39:23;2.70;;;0.90;;
58966;SDS011;44744;51.894;5.080;2022-07-06T06:40:24;2.70;;;1.20;;
58966;SDS011;44744;51.894;5.080;2022-07-06T06:41:28;2.00;;;1.10;;
58966;SDS011;44744;51.894;5.080;2022-07-06T06:42:54;2.60;;;1.10;;
58966;SDS011;44744;51.894;5.080;2022-07-06T06:44:06;3.10;;;1.00;;
58966;SDS011;44744;51.894;5.080;2022-07-06T06:45:27;4.20;;;1.20;;
58966;SDS011;44744;51.894;5.080;2022-07-06T06:49:24;5.20;;;1.30;;
58966;SDS011;44744;51.894;5.080;2022-07-06T06:50:24;1.80;;;1.00;;
58966;SDS011;44744;51.894;5.080;2022-07-06T06:51:27;3.00;;;1.10;;
58966;SDS011;44744;51.894;5.080;2022-07-06T06:52:33;1.60;;;1.00;;
58966;SDS011;44744;51.894;5.080;2022-07-06T06:53:33;5.60;;;1.10;;
58966;SDS011;44744;51.894;5.080;2022-07-06T06:56:41;4.10;;;1.00;;
58966;SDS011;44744;51.894;5.080;2022-07-06T06:58:18;3.00;;;1.00;;
58966;SDS011;44744;51.894;5.080;2022-07-06T07:02:52;3.30;;;1.10;;
58966;SDS011;44744;51.894;5.080;2022-07-06T07:03:56;2.80;;;1.00;;
58966;SDS011;44744;51.894;5.080;2022-07-06T07:04:56;2.80;;;1.00;;
58966;SDS011;44744;51.894;5.080;2022-07-06T07:10:56;3.30;;;1.10;;
58966;SDS011;44744;51.894;5.080;2022-07-06T07:11:59;3.50;;;1.20;;
58966;SDS011;44744;51.894;5.080;2022-07-06T07:14:31;2.80;;;1.10;;
58966;SDS011;44744;51.894;5.080;2022-07-06T07:17:14;1.00;;;0.80;;
58966;SDS011;44744;51.894;5.080;2022-07-06T07:18:29;3.70;;;1.00;;
58966;SDS011;44744;51.894;5.080;2022-07-06T07:23:31;4.10;;;1.20;;
58966;SDS011;44744;51.894;5.080;2022-07-06T07:28:32;2.20;;;1.00;;
58966;SDS011;44744;51.894;5.080;2022-07-06T07:29:40;3.30;;;1.40;;
58966;SDS011;44744;51.894;5.080;2022-07-06T07:30:46;2.70;;;1.00;;
58966;SDS011;44744;51.894;5.080;2022-07-06T07:31:52;5.70;;;1.10;;
58966;SDS011;44744;51.894;5.080;2022-07-06T07:32:57;2.40;;;0.90;;
58966;SDS011;44744;51.894;5.080;2022-07-06T07:35:37;1.50;;;0.80;;
58966;SDS011;44744;51.894;5.080;2022-07-06T07:36:38;5.10;;;1.30;;
58966;SDS011;44744;51.894;5.080;2022-07-06T07:37:57;3.60;;;0.90;;
58966;SDS011;44744;51.894;5.080;2022-07-06T07:38:58;3.30;;;0.80;;
58966;SDS011;44744;51.894;5.080;2022-07-06T07:45:10;3.20;;;0.90;;
58966;SDS011;44744;51.894;5.080;2022-07-06T07:47:44;2.90;;;1.00;;
58966;SDS011;44744;51.894;5.080;2022-07-06T07:52:05;3.00;;;1.10;;
58966;SDS011;44744;51.894;5.080;2022-07-06T07:53:25;2.60;;;1.00;;
58966;SDS011;44744;51.894;5.080;2022-07-06T07:54:26;3.90;;;1.20;;
58966;SDS011;44744;51.894;5.080;2022-07-06T07:55:32;1.90;;;0.80;;
58966;SDS011;44744;51.894;5.080;2022-07-06T07:57:02;5.60;;;1.00;;
58966;SDS011;44744;51.894;5.080;2022-07-06T07:59:45;2.20;;;0.90;;
58966;SDS011;44744;51.894;5.080;2022-07-06T08:00:46;3.20;;;1.10;;
58966;SDS011;44744;51.894;5.080;2022-07-06T08:01:46;2.50;;;0.90;;
58966;SDS011;44744;51.894;5.080;2022-07-06T08:02:52;4.40;;;1.10;;
58966;SDS011;44744;51.894;5.080;2022-07-06T08:03:55;5.30;;;1.20;;
58966;SDS011;44744;51.894;5.080;2022-07-06T08:04:55;3.40;;;0.80;;
58966;SDS011;44744;51.894;5.080;2022-07-06T08:05:58;2.70;;;1.00;;
58966;SDS011;44744;51.894;5.080;2022-07-06T08:07:09;3.10;;;1.00;;
58966;SDS011;44744;51.894;5.080;2022-07-06T08:08:10;4.30;;;1.20;;
58966;SDS011;44744;51.894;5.080;2022-07-06T08:09:11;3.10;;;1.00;;
58966;SDS011;44744;51.894;5.080;2022-07-06T08:10:13;2.30;;;1.20;;
58966;SDS011;44744;51.894;5.080;2022-07-06T08:11:21;1.30;;;0.80;;